You are listening to:
RJTT Tokyo Control - Tokyo, Japan

RJTT 121700Z 36010KT 9999 FEW030 BKN/// 14/10 Q1017 NOSIG

If stream doesn't start automatically press the play button
If stream stops then reload player then press play